Aviation Digital Data Service (ADDS)

Output produced by TAFs form (0733 UTC 26 November 2014)
found at http://www.aviationweather.gov/adds/tafs/
 
KGFL 260539Z 2606/2706 31003KT P6SM SCT040 BKN130 OVC200 
     FM261300 01003KT P6SM VCSH BKN040 OVC080 
     FM261500 36004KT 2SM -SN BR OVC020 
     FM261700 03006KT 1SM -SN BR VV008 
     FM262100 02008KT 3/4SM -SN BR VV006 
     FM270200 36008KT 2SM -SN BR OVC008